Bluewell, West Virginia
Current Conditions -  °F | °C
As of 11:52 PM on Monday 22 Dec 2014 (Local Time) from KBLF Reporting Station
Overcast Overcast  
Wind Chill:   Ceiling: 200
Heat Index:   Visibility: 7mi
Dew Point:   Wind: 6mph
Humidity: 93%   Direction: 80°E
Pressure: 29.93"   Gusts: NA
Location:  37.2994°N, 81.226°W
Report Text: KBLF 230452Z AUTO 08005KT 7SM OVC002 03/02 A2993 RMK AO2 SLP142 T00280017 400560022
Loading
Personal Weather Stations






























Interactive Weather Map New forecast layout! Learn more

10-Day Weather Forecast

Advertisements
Track Severe Weather on mobile